NCAR-RAP Real-Time Weather Data

Output produced by METARs form (17 January 2018  22:26 UTC)
found at http://weather.rap.ucar.edu/surface/
 
Conditions at: KVDF observed 17 January 2018  22:15 UTC
Temperature: 10.0°C (50°F)
Dewpoint: 5.0°C (41°F) [RH = 71%]
Pressure (altimeter): 30.30 inches Hg (1026.2 mb)
Winds: from the NW (310 degrees) at 15 MPH (13 knots; 6.8 m/s)
gusting to 23 MPH (20 knots; 10.4 m/s)
Visibility: 10 or more miles (16+ km)
Ceiling: 2000 feet AGL
Clouds: overcast cloud deck at 2000 feet AGL
Present Weather: automated observation with no human augmentation;
there may or may not be significant weather present at this time
KVDF 172215Z AUTO 31013G20KT 10SM OVC020 10/05 A3030 RMK AO2

Conditions at: KVDF observed 17 January 2018  21:55 UTC
Temperature: 10.0°C (50°F)
Dewpoint: 6.0°C (43°F) [RH = 76%]
Pressure (altimeter): 30.29 inches Hg (1025.8 mb)
Winds: from the NNW (340 degrees) at 13 MPH (11 knots; 5.7 m/s)
gusting to 17 MPH (15 knots; 7.8 m/s)
Visibility: 10 or more miles (16+ km)
Ceiling: 2200 feet AGL
Clouds: broken clouds at 2200 feet AGL
overcast cloud deck at 4100 feet AGL
Present Weather: automated observation with no human augmentation;
there may or may not be significant weather present at this time
KVDF 172155Z AUTO 34011G15KT 10SM BKN022 OVC041 10/06 A3029 RMK AO2

Conditions at: KVDF observed 17 January 2018  21:35 UTC
Temperature: 11.0°C (52°F)
Dewpoint: 5.0°C (41°F) [RH = 66%]
Pressure (altimeter): 30.28 inches Hg (1025.5 mb)
Winds: from the NNW (330 degrees) at 15 MPH (13 knots; 6.8 m/s)
gusting to 20 MPH (17 knots; 8.8 m/s)
Visibility: 10 or more miles (16+ km)
Ceiling: 2200 feet AGL
Clouds: broken clouds at 2200 feet AGL
broken clouds at 3200 feet AGL
broken clouds at 4100 feet AGL
Present Weather: automated observation with no human augmentation;
there may or may not be significant weather present at this time
KVDF 172135Z AUTO 33013G17KT 10SM BKN022 BKN032 BKN041 11/05 A3028 RMK AO2

Conditions at: KVDF observed 17 January 2018  21:15 UTC
Temperature: 12.0°C (54°F)
Dewpoint: 6.0°C (43°F) [RH = 67%]
Pressure (altimeter): 30.27 inches Hg (1025.1 mb)
Winds: from the NW (310 degrees) at 13 MPH (11 knots; 5.7 m/s)
gusting to 22 MPH (19 knots; 9.9 m/s)
Visibility: 10 or more miles (16+ km)
Ceiling: 3000 feet AGL
Clouds: scattered clouds at 2200 feet AGL
broken clouds at 3000 feet AGL
Present Weather: automated observation with no human augmentation;
there may or may not be significant weather present at this time
KVDF 172115Z AUTO 31011G19KT 10SM SCT022 BKN030 12/06 A3027 RMK AO2

Conditions at: KVDF observed 17 January 2018  20:55 UTC
Temperature: 13.0°C (55°F)
Dewpoint: 6.0°C (43°F) [RH = 62%]
Pressure (altimeter): 30.26 inches Hg (1024.8 mb)
Winds: from the NW (310 degrees) at 13 MPH (11 knots; 5.7 m/s)
gusting to 21 MPH (18 knots; 9.4 m/s)
Visibility: 10 or more miles (16+ km)
Ceiling: 3000 feet AGL
Clouds: broken clouds at 3000 feet AGL
Present Weather: automated observation with no human augmentation;
there may or may not be significant weather present at this time
KVDF 172055Z AUTO 31011G18KT 10SM BKN030 13/06 A3026 RMK AO2

Conditions at: KVDF observed 17 January 2018  20:35 UTC
Temperature: 15.0°C (59°F)
Dewpoint: 7.0°C (45°F) [RH = 59%]
Pressure (altimeter): 30.25 inches Hg (1024.5 mb)
Winds: from the WNW (300 degrees) at 14 MPH (12 knots; 6.2 m/s)
gusting to 21 MPH (18 knots; 9.4 m/s)
Visibility: 10 or more miles (16+ km)
Ceiling: at least 12,000 feet AGL
Clouds: sky clear below 12,000 feet AGL
Present Weather: automated observation with no human augmentation;
there may or may not be significant weather present at this time
KVDF 172035Z AUTO 30012G18KT 10SM CLR 15/07 A3025 RMK AO2

Conditions at: KVDF observed 17 January 2018  20:15 UTC
Temperature: 15.0°C (59°F)
Dewpoint: 7.0°C (45°F) [RH = 59%]
Pressure (altimeter): 30.25 inches Hg (1024.5 mb)
Winds: from the NNW (330 degrees) at 14 MPH (12 knots; 6.2 m/s)
gusting to 20 MPH (17 knots; 8.8 m/s)
Visibility: 10 or more miles (16+ km)
Ceiling: at least 12,000 feet AGL
Clouds: sky clear below 12,000 feet AGL
Present Weather: automated observation with no human augmentation;
there may or may not be significant weather present at this time
KVDF 172015Z AUTO 33012G17KT 10SM CLR 15/07 A3025 RMK AO2

Conditions at: KVDF observed 17 January 2018  19:55 UTC
Temperature: 13.0°C (55°F)
Dewpoint: 7.0°C (45°F) [RH = 67%]
Pressure (altimeter): 30.26 inches Hg (1024.8 mb)
Winds: from the NW (310 degrees) at 9 MPH (8 knots; 4.2 m/s)
gusting to 20 MPH (17 knots; 8.8 m/s)
Visibility: 10 or more miles (16+ km)
Ceiling: at least 12,000 feet AGL
Clouds: scattered clouds at 1600 feet AGL
scattered clouds at 4700 feet AGL
Present Weather: automated observation with no human augmentation;
there may or may not be significant weather present at this time
KVDF 171955Z AUTO 31008G17KT 255V325 10SM SCT016 SCT047 13/07 A3026 RMK AO2

Conditions at: KVDF observed 17 January 2018  19:35 UTC
Temperature: 14.0°C (57°F)
Dewpoint: 8.0°C (46°F) [RH = 67%]
Pressure (altimeter): 30.26 inches Hg (1024.8 mb)
Winds: from the NW (310 degrees) at 15 MPH (13 knots; 6.8 m/s)
gusting to 22 MPH (19 knots; 9.9 m/s)
Visibility: 10 or more miles (16+ km)
Ceiling: at least 12,000 feet AGL
Clouds: sky clear below 12,000 feet AGL
Present Weather: automated observation with no human augmentation;
there may or may not be significant weather present at this time
KVDF 171935Z AUTO 31013G19KT 10SM CLR 14/08 A3026 RMK AO2

Conditions at: KVDF observed 17 January 2018  19:15 UTC
Temperature: 16.0°C (61°F)
Dewpoint: 8.0°C (46°F) [RH = 59%]
Pressure (altimeter): 30.25 inches Hg (1024.5 mb)
Winds: from the NW (320 degrees) at 13 MPH (11 knots; 5.7 m/s)
gusting to 17 MPH (15 knots; 7.8 m/s)
Visibility: 10 or more miles (16+ km)
Ceiling: at least 12,000 feet AGL
Clouds: sky clear below 12,000 feet AGL
Present Weather: automated observation with no human augmentation;
there may or may not be significant weather present at this time
KVDF 171915Z AUTO 32011G15KT 10SM CLR 16/08 A3025 RMK AO2

Conditions at: KVDF observed 17 January 2018  18:55 UTC
Temperature: 17.0°C (63°F)
Dewpoint: 10.0°C (50°F) [RH = 63%]
Pressure (altimeter): 30.25 inches Hg (1024.5 mb)
Winds: from the NW (310 degrees) at 16 MPH (14 knots; 7.3 m/s)
gusting to 22 MPH (19 knots; 9.9 m/s)
Visibility: 10 or more miles (16+ km)
Ceiling: at least 12,000 feet AGL
Clouds: sky clear below 12,000 feet AGL
Present Weather: automated observation with no human augmentation;
there may or may not be significant weather present at this time
KVDF 171855Z AUTO 31014G19KT 10SM CLR 17/10 A3025 RMK AO2

Conditions at: KVDF observed 17 January 2018  18:35 UTC
Temperature: 20.0°C (68°F)
Dewpoint: 10.0°C (50°F) [RH = 53%]
Pressure (altimeter): 30.24 inches Hg (1024.1 mb)
Winds: from the WNW (290 degrees) at 13 MPH (11 knots; 5.7 m/s)
gusting to 21 MPH (18 knots; 9.4 m/s)
Visibility: 10 or more miles (16+ km)
Ceiling: at least 12,000 feet AGL
Clouds: sky clear below 12,000 feet AGL
Present Weather: automated observation with no human augmentation;
there may or may not be significant weather present at this time
KVDF 171835Z AUTO 29011G18KT 10SM CLR 20/10 A3024 RMK AO2

Conditions at: KVDF observed 17 January 2018  18:15 UTC
Temperature: 21.0°C (70°F)
Dewpoint: 8.0°C (46°F) [RH = 43%]
Pressure (altimeter): 30.24 inches Hg (1024.1 mb)
Winds: from the WNW (290 degrees) at 8 MPH (7 knots; 3.6 m/s)
Visibility: 10 or more miles (16+ km)
Ceiling: at least 12,000 feet AGL
Clouds: scattered clouds at 4200 feet AGL
Present Weather: automated observation with no human augmentation;
there may or may not be significant weather present at this time
KVDF 171815Z AUTO 29007KT 10SM SCT042 21/08 A3024 RMK AO2

Conditions at: KVDF observed 17 January 2018  17:55 UTC
Temperature: 21.0°C (70°F)
Dewpoint: 10.0°C (50°F) [RH = 49%]
Pressure (altimeter): 30.24 inches Hg (1024.1 mb)
Winds: from the NNW (330 degrees) at 8 MPH (7 knots; 3.6 m/s)
Visibility: 10 or more miles (16+ km)
Ceiling: at least 12,000 feet AGL
Clouds: scattered clouds at 4400 feet AGL
Present Weather: automated observation with no human augmentation;
there may or may not be significant weather present at this time
KVDF 171755Z AUTO 33007KT 275V355 10SM SCT044 21/10 A3024 RMK AO2

Conditions at: KVDF observed 17 January 2018  17:35 UTC
Temperature: 21.0°C (70°F)
Dewpoint: 9.0°C (48°F) [RH = 46%]
Pressure (altimeter): 30.26 inches Hg (1024.8 mb)
Winds: from the WNW (300 degrees) at 13 MPH (11 knots; 5.7 m/s)
gusting to 16 MPH (14 knots; 7.3 m/s)
Visibility: 10 or more miles (16+ km)
Ceiling: at least 12,000 feet AGL
Clouds: scattered clouds at 4400 feet AGL
Present Weather: automated observation with no human augmentation;
there may or may not be significant weather present at this time
KVDF 171735Z AUTO 30011G14KT 10SM SCT044 21/09 A3026 RMK AO2

Conditions at: KVDF observed 17 January 2018  17:15 UTC
Temperature: 21.0°C (70°F)
Dewpoint: 9.0°C (48°F) [RH = 46%]
Pressure (altimeter): 30.27 inches Hg (1025.1 mb)
Winds: from the W (270 degrees) at 5 MPH (4 knots; 2.1 m/s)
Visibility: 10 or more miles (16+ km)
Ceiling: at least 12,000 feet AGL
Clouds: sky clear below 12,000 feet AGL
Present Weather: automated observation with no human augmentation;
there may or may not be significant weather present at this time
KVDF 171715Z AUTO 27004KT 10SM CLR 21/09 A3027 RMK AO2

Conditions at: KVDF observed 17 January 2018  16:55 UTC
Temperature: 20.0°C (68°F)
Dewpoint: 9.0°C (48°F) [RH = 49%]
Pressure (altimeter): 30.28 inches Hg (1025.5 mb)
Winds: from the W (270 degrees) at 3 MPH (3 knots; 1.6 m/s)
Visibility: 10 or more miles (16+ km)
Ceiling: at least 12,000 feet AGL
Clouds: sky clear below 12,000 feet AGL
Present Weather: automated observation with no human augmentation;
there may or may not be significant weather present at this time
KVDF 171655Z AUTO 27003KT 10SM CLR 20/09 A3028 RMK AO2

Conditions at: KVDF observed 17 January 2018  16:35 UTC
Temperature: 20.0°C (68°F)
Dewpoint: 9.0°C (48°F) [RH = 49%]
Pressure (altimeter): 30.29 inches Hg (1025.8 mb)
Winds: from the WNW (300 degrees) at 5 MPH (4 knots; 2.1 m/s)
Visibility: 10 or more miles (16+ km)
Ceiling: at least 12,000 feet AGL
Clouds: sky clear below 12,000 feet AGL
Present Weather: automated observation with no human augmentation;
there may or may not be significant weather present at this time
KVDF 171635Z AUTO 30004KT 10SM CLR 20/09 A3029 RMK AO2

Conditions at: KVDF observed 17 January 2018  16:15 UTC
Temperature: 18.0°C (64°F)
Dewpoint: 10.0°C (50°F) [RH = 59%]
Pressure (altimeter): 30.30 inches Hg (1026.2 mb)
Winds: from the NW (310 degrees) at 6 MPH (5 knots; 2.6 m/s)
Visibility: 10 or more miles (16+ km)
Ceiling: at least 12,000 feet AGL
Clouds: sky clear below 12,000 feet AGL
Present Weather: automated observation with no human augmentation;
there may or may not be significant weather present at this time
KVDF 171615Z AUTO 31005KT 10SM CLR 18/10 A3030 RMK AO2

Conditions at: KVDF observed 17 January 2018  15:55 UTC
Temperature: 17.0°C (63°F)
Dewpoint: 10.0°C (50°F) [RH = 63%]
Pressure (altimeter): 30.30 inches Hg (1026.2 mb)
Winds: calm
Visibility: 10 or more miles (16+ km)
Ceiling: at least 12,000 feet AGL
Clouds: sky clear below 12,000 feet AGL
Present Weather: automated observation with no human augmentation;
there may or may not be significant weather present at this time
KVDF 171555Z AUTO 00000KT 10SM CLR 17/10 A3030 RMK AO2

Conditions at: KVDF observed 17 January 2018  15:35 UTC
Temperature: 15.0°C (59°F)
Dewpoint: 11.0°C (52°F) [RH = 77%]
Pressure (altimeter): 30.30 inches Hg (1026.2 mb)
Winds: calm
Visibility: 10 or more miles (16+ km)
Ceiling: at least 12,000 feet AGL
Clouds: sky clear below 12,000 feet AGL
Present Weather: automated observation with no human augmentation;
there may or may not be significant weather present at this time
KVDF 171535Z AUTO 00000KT 10SM CLR 15/11 A3030 RMK AO2

Conditions at: KVDF observed 17 January 2018  15:15 UTC
Temperature: 13.0°C (55°F)
Dewpoint: 11.0°C (52°F) [RH = 88%]
Pressure (altimeter): 30.30 inches Hg (1026.2 mb)
Winds: calm
Visibility: 10 or more miles (16+ km)
Ceiling: at least 12,000 feet AGL
Clouds: sky clear below 12,000 feet AGL
Present Weather: automated observation with no human augmentation;
there may or may not be significant weather present at this time
KVDF 171515Z AUTO 00000KT 10SM CLR 13/11 A3030 RMK AO2

Conditions at: KVDF observed 17 January 2018  14:55 UTC
Temperature: 12.0°C (54°F)
Dewpoint: 12.0°C (54°F) [RH = 100%]
Pressure (altimeter): 30.30 inches Hg (1026.2 mb)
Winds: calm
Visibility: 10 or more miles (16+ km)
Ceiling: at least 12,000 feet AGL
Clouds: scattered clouds at 200 feet AGL
Present Weather: automated observation with no human augmentation;
there may or may not be significant weather present at this time
KVDF 171455Z AUTO 00000KT 10SM SCT002 12/12 A3030 RMK AO2

Conditions at: KVDF observed 17 January 2018  14:35 UTC
Temperature: 10.0°C (50°F)
Dewpoint: 10.0°C (50°F) [RH = 100%]
Pressure (altimeter): 30.29 inches Hg (1025.8 mb)
Winds: calm
Visibility: 5 miles (8 km)
Ceiling: 200 feet AGL
Clouds: broken clouds at 200 feet AGL
Present Weather: BR  (mist)
KVDF 171435Z AUTO 00000KT 5SM BR BKN002 10/10 A3029 RMK AO2

Conditions at: KVDF observed 17 January 2018  14:15 UTC
Temperature: 9.0°C (48°F)
Dewpoint: 9.0°C (48°F) [RH = 100%]
Pressure (altimeter): 30.30 inches Hg (1026.2 mb)
Winds: calm
Visibility: 0.75 miles (1.21 km)
Ceiling: 200 feet AGL
Clouds: overcast cloud deck at 200 feet AGL
Present Weather: BR  (mist)
KVDF 171415Z AUTO 00000KT 3/4SM BR OVC002 09/09 A3030 RMK AO2

Conditions at: KVDF observed 17 January 2018  13:55 UTC
Temperature: 8.0°C (46°F)
Dewpoint: 8.0°C (46°F) [RH = 100%]
Pressure (altimeter): 30.29 inches Hg (1025.8 mb)
Winds: calm
Visibility: 0.50 miles (0.80 km)
Ceiling: 200 feet AGL
Clouds: overcast cloud deck at 200 feet AGL
Present Weather: FG  (fog)
KVDF 171355Z AUTO 00000KT 1/2SM FG OVC002 08/08 A3029 RMK AO2

Conditions at: KVDF observed 17 January 2018  13:35 UTC
Temperature: 7.0°C (45°F)
Dewpoint: 7.0°C (45°F) [RH = 100%]
Pressure (altimeter): 30.29 inches Hg (1025.8 mb)
Winds: calm
Visibility: 0.25 miles (0.40 km)
Ceiling: 200 feet AGL
Clouds: overcast cloud deck at 200 feet AGL
Present Weather: FG  (fog)
KVDF 171335Z AUTO 00000KT 1/4SM FG OVC002 07/07 A3029 RMK AO2

Conditions at: KVDF observed 17 January 2018  13:15 UTC
Temperature: 7.0°C (45°F)
Dewpoint: 7.0°C (45°F) [RH = 100%]
Pressure (altimeter): 30.29 inches Hg (1025.8 mb)
Winds: calm
Visibility: 0.25 miles (0.40 km)
Ceiling: 200 feet AGL
Clouds: overcast cloud deck at 200 feet AGL
Present Weather: FG  (fog)
KVDF 171315Z AUTO 00000KT 1/4SM FG OVC002 07/07 A3029 RMK AO2

Conditions at: KVDF observed 17 January 2018  12:55 UTC
Temperature: 7.0°C (45°F)
Dewpoint: 7.0°C (45°F) [RH = 100%]
Pressure (altimeter): 30.29 inches Hg (1025.8 mb)
Winds: calm
Visibility: 0.25 miles (0.40 km)
Ceiling: 200 feet AGL
Clouds: overcast cloud deck at 200 feet AGL
Present Weather: FG  (fog)
KVDF 171255Z AUTO 00000KT 1/4SM FG OVC002 07/07 A3029 RMK AO2

Conditions at: KVDF observed 17 January 2018  12:35 UTC
Temperature: 6.0°C (43°F)
Dewpoint: 6.0°C (43°F) [RH = 100%]
Pressure (altimeter): 30.28 inches Hg (1025.5 mb)
Winds: calm
Visibility: 0.25 miles (0.40 km)
Ceiling: 200 feet AGL
Clouds: overcast cloud deck at 200 feet AGL
Present Weather: FG  (fog)
KVDF 171235Z AUTO 00000KT 1/4SM FG OVC002 06/06 A3028 RMK AO2

Conditions at: KVDF observed 17 January 2018  12:15 UTC
Temperature: 6.0°C (43°F)
Dewpoint: 6.0°C (43°F) [RH = 100%]
Pressure (altimeter): 30.27 inches Hg (1025.1 mb)
Winds: calm
Visibility: 0.50 miles (0.80 km)
Ceiling: 200 feet AGL
Clouds: overcast cloud deck at 200 feet AGL
Present Weather: FG  (fog)
KVDF 171215Z AUTO 00000KT 1/2SM FG OVC002 06/06 A3027 RMK AO2

Conditions at: KVDF observed 17 January 2018  11:55 UTC
Temperature: 7.0°C (45°F)
Dewpoint: 7.0°C (45°F) [RH = 100%]
Pressure (altimeter): 30.27 inches Hg (1025.1 mb)
Winds: from the NW (320 degrees) at 3 MPH (3 knots; 1.6 m/s)
Visibility: 0.75 miles (1.21 km)
Ceiling: 200 feet AGL
Clouds: overcast cloud deck at 200 feet AGL
Present Weather: BR  (mist)
KVDF 171155Z AUTO 32003KT 3/4SM BR OVC002 07/07 A3027 RMK AO2

Conditions at: KVDF observed 17 January 2018  11:35 UTC
Temperature: 5.0°C (41°F)
Dewpoint: 5.0°C (41°F) [RH = 100%]
Pressure (altimeter): 30.27 inches Hg (1025.1 mb)
Winds: calm
Visibility: 0.25 miles (0.40 km)
Ceiling: 400 feet AGL
Clouds: overcast cloud deck at 400 feet AGL
Present Weather: FG  (fog)
KVDF 171135Z AUTO 00000KT M1/4SM FG OVC004 05/05 A3027 RMK AO2

Conditions at: KVDF observed 17 January 2018  11:15 UTC
Temperature: 6.0°C (43°F)
Dewpoint: 6.0°C (43°F) [RH = 100%]
Pressure (altimeter): 30.26 inches Hg (1024.8 mb)
Winds: calm
Visibility: 3 miles (5 km)
Ceiling: 400 feet AGL
Clouds: overcast cloud deck at 400 feet AGL
Present Weather: BR  (mist)
KVDF 171115Z AUTO 00000KT 3SM BR OVC004 06/06 A3026 RMK AO2

Conditions at: KVDF observed 17 January 2018  10:55 UTC
Temperature: 6.0°C (43°F)
Dewpoint: 5.0°C (41°F) [RH = 93%]
Pressure (altimeter): 30.25 inches Hg (1024.5 mb)
Winds: calm
Visibility: missing
Ceiling: unknown
Clouds: missing
Present Weather: automated observation with no human augmentation;
there may or may not be significant weather present at this time
KVDF 171055Z AUTO 00000KT 06/05 A3025 RMK AO2 PWINO

Conditions at: KVDF observed 17 January 2018  10:35 UTC
Temperature: 5.0°C (41°F)
Dewpoint: 5.0°C (41°F) [RH = 100%]
Pressure (altimeter): 30.26 inches Hg (1024.8 mb)
Winds: calm
Visibility: 1.75 miles (2.82 km)
Ceiling: 400 feet AGL
Clouds: broken clouds at 400 feet AGL
Present Weather: automated observation with no human augmentation;
there may or may not be significant weather present at this time
KVDF 171035Z AUTO 00000KT 1 3/4SM BKN004 05/05 A3026 RMK AO2 VIS 1/4V5 PWINO

Conditions at: KVDF observed 17 January 2018  10:15 UTC
Temperature: 6.0°C (43°F)
Dewpoint: 5.0°C (41°F) [RH = 93%]
Pressure (altimeter): 30.26 inches Hg (1024.8 mb)
Winds: calm
Visibility: 0.50 miles (0.80 km)
Ceiling: 400 feet AGL
Clouds: overcast cloud deck at 400 feet AGL
Present Weather: FG  (fog)
KVDF 171015Z AUTO 00000KT 1/2SM FG OVC004 06/05 A3026 RMK AO2

Conditions at: KVDF observed 17 January 2018  09:55 UTC
Temperature: 6.0°C (43°F)
Dewpoint: 5.0°C (41°F) [RH = 93%]
Pressure (altimeter): 30.25 inches Hg (1024.5 mb)
Winds: calm
Visibility: 0.50 miles (0.80 km)
Ceiling: 400 feet AGL
Clouds: overcast cloud deck at 400 feet AGL
Present Weather: FG  (fog)
KVDF 170955Z AUTO 00000KT 1/2SM FG OVC004 06/05 A3025 RMK AO2

Conditions at: KVDF observed 17 January 2018  09:35 UTC
Temperature: 6.0°C (43°F)
Dewpoint: 6.0°C (43°F) [RH = 100%]
Pressure (altimeter): 30.26 inches Hg (1024.8 mb)
Winds: calm
Visibility: 0.25 miles (0.40 km)
Ceiling: 200 feet AGL
Clouds: overcast cloud deck at 200 feet AGL
Present Weather: FG  (fog)
KVDF 170935Z AUTO 00000KT 1/4SM FG OVC002 06/06 A3026 RMK AO2

Conditions at: KVDF observed 17 January 2018  09:15 UTC
Temperature: 6.0°C (43°F)
Dewpoint: 6.0°C (43°F) [RH = 100%]
Pressure (altimeter): 30.25 inches Hg (1024.5 mb)
Winds: calm
Visibility: 4 miles (6 km)
Ceiling: at least 12,000 feet AGL
Clouds: sky clear below 12,000 feet AGL
Present Weather: BR  (mist)
KVDF 170915Z AUTO 00000KT 4SM BR CLR 06/06 A3025 RMK AO2

Conditions at: KVDF observed 17 January 2018  08:55 UTC
Temperature: 6.0°C (43°F)
Dewpoint: 6.0°C (43°F) [RH = 100%]
Pressure (altimeter): 30.25 inches Hg (1024.5 mb)
Winds: calm
Visibility: 4 miles (6 km)
Ceiling: at least 12,000 feet AGL
Clouds: sky clear below 12,000 feet AGL
Present Weather: BR  (mist)
KVDF 170855Z AUTO 00000KT 4SM BR CLR 06/06 A3025 RMK AO2

Conditions at: KVDF observed 17 January 2018  08:35 UTC
Temperature: 6.0°C (43°F)
Dewpoint: 6.0°C (43°F) [RH = 100%]
Pressure (altimeter): 30.25 inches Hg (1024.5 mb)
Winds: calm
Visibility: 7 miles (11 km)
Ceiling: at least 12,000 feet AGL
Clouds: sky clear below 12,000 feet AGL
Present Weather: automated observation with no human augmentation;
there may or may not be significant weather present at this time
KVDF 170835Z AUTO 00000KT 7SM CLR 06/06 A3025 RMK AO2

Conditions at: KVDF observed 17 January 2018  08:15 UTC
Temperature: 6.0°C (43°F)
Dewpoint: 6.0°C (43°F) [RH = 100%]
Pressure (altimeter): 30.25 inches Hg (1024.5 mb)
Winds: calm
Visibility: 2.50 miles (4.02 km)
Ceiling: at least 12,000 feet AGL
Clouds: sky clear below 12,000 feet AGL
Present Weather: BR  (mist)
KVDF 170815Z AUTO 00000KT 2 1/2SM BR CLR 06/06 A3025 RMK AO2

Conditions at: KVDF observed 17 January 2018  07:55 UTC
Temperature: 6.0°C (43°F)
Dewpoint: 6.0°C (43°F) [RH = 100%]
Pressure (altimeter): 30.25 inches Hg (1024.5 mb)
Winds: calm
Visibility: 3 miles (5 km)
Ceiling: at least 12,000 feet AGL
Clouds: scattered clouds at 500 feet AGL
Present Weather: BR  (mist)
KVDF 170755Z AUTO 00000KT 3SM BR SCT005 06/06 A3025 RMK AO2

Conditions at: KVDF observed 17 January 2018  07:35 UTC
Temperature: 7.0°C (45°F)
Dewpoint: 6.0°C (43°F) [RH = 93%]
Pressure (altimeter): 30.25 inches Hg (1024.5 mb)
Winds: calm
Visibility: 4 miles (6 km)
Ceiling: at least 12,000 feet AGL
Clouds: scattered clouds at 500 feet AGL
Present Weather: BR  (mist)
KVDF 170735Z AUTO 00000KT 4SM BR SCT005 07/06 A3025 RMK AO2

Conditions at: KVDF observed 17 January 2018  07:15 UTC
Temperature: 6.0°C (43°F)
Dewpoint: 6.0°C (43°F) [RH = 100%]
Pressure (altimeter): 30.25 inches Hg (1024.5 mb)
Winds: calm
Visibility: 5 miles (8 km)
Ceiling: at least 12,000 feet AGL
Clouds: sky clear below 12,000 feet AGL
Present Weather: BR  (mist)
KVDF 170715Z AUTO 00000KT 5SM BR CLR 06/06 A3025 RMK AO2

Conditions at: KVDF observed 17 January 2018  06:55 UTC
Temperature: 7.0°C (45°F)
Dewpoint: 7.0°C (45°F) [RH = 100%]
Pressure (altimeter): 30.26 inches Hg (1024.8 mb)
Winds: calm
Visibility: 7 miles (11 km)
Ceiling: at least 12,000 feet AGL
Clouds: sky clear below 12,000 feet AGL
Present Weather: automated observation with no human augmentation;
there may or may not be significant weather present at this time
KVDF 170655Z AUTO 00000KT 7SM CLR 07/07 A3026 RMK AO2

Conditions at: KVDF observed 17 January 2018  06:35 UTC
Temperature: 7.0°C (45°F)
Dewpoint: 6.0°C (43°F) [RH = 93%]
Pressure (altimeter): 30.27 inches Hg (1025.1 mb)
Winds: calm
Visibility: 2.00 miles (3.22 km)
Ceiling: at least 12,000 feet AGL
Clouds: sky clear below 12,000 feet AGL
Present Weather: BR  (mist)
KVDF 170635Z AUTO 00000KT 2SM BR CLR 07/06 A3027 RMK AO2

Conditions at: KVDF observed 17 January 2018  06:15 UTC
Temperature: 7.0°C (45°F)
Dewpoint: 6.0°C (43°F) [RH = 93%]
Pressure (altimeter): 30.27 inches Hg (1025.1 mb)
Winds: calm
Visibility: 2.50 miles (4.02 km)
Ceiling: at least 12,000 feet AGL
Clouds: sky clear below 12,000 feet AGL
Present Weather: BR  (mist)
KVDF 170615Z AUTO 00000KT 2 1/2SM BR CLR 07/06 A3027 RMK AO2 VIS 1/2V5

Conditions at: KVDF observed 17 January 2018  05:55 UTC
Temperature: 7.0°C (45°F)
Dewpoint: 7.0°C (45°F) [RH = 100%]
Pressure (altimeter): 30.27 inches Hg (1025.1 mb)
Winds: calm
Visibility: 7 miles (11 km)
Ceiling: at least 12,000 feet AGL
Clouds: sky clear below 12,000 feet AGL
Present Weather: automated observation with no human augmentation;
there may or may not be significant weather present at this time
KVDF 170555Z AUTO 00000KT 7SM CLR 07/07 A3027 RMK AO2

Conditions at: KVDF observed 17 January 2018  05:35 UTC
Temperature: 7.0°C (45°F)
Dewpoint: 7.0°C (45°F) [RH = 100%]
Pressure (altimeter): 30.28 inches Hg (1025.5 mb)
Winds: calm
Visibility: 7 miles (11 km)
Ceiling: at least 12,000 feet AGL
Clouds: sky clear below 12,000 feet AGL
Present Weather: automated observation with no human augmentation;
there may or may not be significant weather present at this time
KVDF 170535Z AUTO 00000KT 7SM CLR 07/07 A3028 RMK AO2

Conditions at: KVDF observed 17 January 2018  05:15 UTC
Temperature: 8.0°C (46°F)
Dewpoint: 7.0°C (45°F) [RH = 93%]
Pressure (altimeter): 30.28 inches Hg (1025.5 mb)
Winds: calm
Visibility: 7 miles (11 km)
Ceiling: at least 12,000 feet AGL
Clouds: sky clear below 12,000 feet AGL
Present Weather: automated observation with no human augmentation;
there may or may not be significant weather present at this time
KVDF 170515Z AUTO 00000KT 7SM CLR 08/07 A3028 RMK AO2

Conditions at: KVDF observed 17 January 2018  04:55 UTC
Temperature: 8.0°C (46°F)
Dewpoint: 7.0°C (45°F) [RH = 93%]
Pressure (altimeter): 30.29 inches Hg (1025.8 mb)
Winds: calm
Visibility: 10 or more miles (16+ km)
Ceiling: at least 12,000 feet AGL
Clouds: sky clear below 12,000 feet AGL
Present Weather: automated observation with no human augmentation;
there may or may not be significant weather present at this time
KVDF 170455Z AUTO 00000KT 10SM CLR 08/07 A3029 RMK AO2

Conditions at: KVDF observed 17 January 2018  04:35 UTC
Temperature: 8.0°C (46°F)
Dewpoint: 8.0°C (46°F) [RH = 100%]
Pressure (altimeter): 30.30 inches Hg (1026.2 mb)
Winds: calm
Visibility: 10 or more miles (16+ km)
Ceiling: at least 12,000 feet AGL
Clouds: sky clear below 12,000 feet AGL
Present Weather: automated observation with no human augmentation;
there may or may not be significant weather present at this time
KVDF 170435Z AUTO 00000KT 10SM CLR 08/08 A3030 RMK AO2

Conditions at: KVDF observed 17 January 2018  04:15 UTC
Temperature: 9.0°C (48°F)
Dewpoint: 8.0°C (46°F) [RH = 93%]
Pressure (altimeter): 30.30 inches Hg (1026.2 mb)
Winds: calm
Visibility: 10 or more miles (16+ km)
Ceiling: at least 12,000 feet AGL
Clouds: sky clear below 12,000 feet AGL
Present Weather: automated observation with no human augmentation;
there may or may not be significant weather present at this time
KVDF 170415Z AUTO 00000KT 10SM CLR 09/08 A3030 RMK AO2

Conditions at: KVDF observed 17 January 2018  03:55 UTC
Temperature: 10.0°C (50°F)
Dewpoint: 8.0°C (46°F) [RH = 87%]
Pressure (altimeter): 30.30 inches Hg (1026.2 mb)
Winds: calm
Visibility: 10 or more miles (16+ km)
Ceiling: at least 12,000 feet AGL
Clouds: sky clear below 12,000 feet AGL
Present Weather: automated observation with no human augmentation;
there may or may not be significant weather present at this time
KVDF 170355Z AUTO 00000KT 10SM CLR 10/08 A3030 RMK AO2

Conditions at: KVDF observed 17 January 2018  03:35 UTC
Temperature: 10.0°C (50°F)
Dewpoint: 8.0°C (46°F) [RH = 87%]
Pressure (altimeter): 30.30 inches Hg (1026.2 mb)
Winds: calm
Visibility: 10 or more miles (16+ km)
Ceiling: at least 12,000 feet AGL
Clouds: sky clear below 12,000 feet AGL
Present Weather: automated observation with no human augmentation;
there may or may not be significant weather present at this time
KVDF 170335Z AUTO 00000KT 10SM CLR 10/08 A3030 RMK AO2

Conditions at: KVDF observed 17 January 2018  03:15 UTC
Temperature: 11.0°C (52°F)
Dewpoint: 8.0°C (46°F) [RH = 82%]
Pressure (altimeter): 30.30 inches Hg (1026.2 mb)
Winds: calm
Visibility: 10 or more miles (16+ km)
Ceiling: at least 12,000 feet AGL
Clouds: sky clear below 12,000 feet AGL
Present Weather: automated observation with no human augmentation;
there may or may not be significant weather present at this time
KVDF 170315Z AUTO 00000KT 10SM CLR 11/08 A3030 RMK AO2

Conditions at: KVDF observed 17 January 2018  02:55 UTC
Temperature: 12.0°C (54°F)
Dewpoint: 8.0°C (46°F) [RH = 76%]
Pressure (altimeter): 30.30 inches Hg (1026.2 mb)
Winds: from the ENE (70 degrees) at 3 MPH (3 knots; 1.6 m/s)
Visibility: 10 or more miles (16+ km)
Ceiling: at least 12,000 feet AGL
Clouds: sky clear below 12,000 feet AGL
Present Weather: automated observation with no human augmentation;
there may or may not be significant weather present at this time
KVDF 170255Z AUTO 07003KT 10SM CLR 12/08 A3030 RMK AO2

Conditions at: KVDF observed 17 January 2018  02:35 UTC
Temperature: 12.0°C (54°F)
Dewpoint: 8.0°C (46°F) [RH = 76%]
Pressure (altimeter): 30.30 inches Hg (1026.2 mb)
Winds: from the E (80 degrees) at 5 MPH (4 knots; 2.1 m/s)
Visibility: 10 or more miles (16+ km)
Ceiling: at least 12,000 feet AGL
Clouds: sky clear below 12,000 feet AGL
Present Weather: automated observation with no human augmentation;
there may or may not be significant weather present at this time
KVDF 170235Z AUTO 08004KT 10SM CLR 12/08 A3030 RMK AO2

Conditions at: KVDF observed 17 January 2018  02:15 UTC
Temperature: 10.0°C (50°F)
Dewpoint: 8.0°C (46°F) [RH = 87%]
Pressure (altimeter): 30.30 inches Hg (1026.2 mb)
Winds: from the ENE (70 degrees) at 6 MPH (5 knots; 2.6 m/s)
Visibility: 10 or more miles (16+ km)
Ceiling: at least 12,000 feet AGL
Clouds: sky clear below 12,000 feet AGL
Present Weather: automated observation with no human augmentation;
there may or may not be significant weather present at this time
KVDF 170215Z AUTO 07005KT 10SM CLR 10/08 A3030 RMK AO2

Conditions at: KVDF observed 17 January 2018  01:55 UTC
Temperature: 9.0°C (48°F)
Dewpoint: 8.0°C (46°F) [RH = 93%]
Pressure (altimeter): 30.31 inches Hg (1026.5 mb)
Winds: calm
Visibility: 10 or more miles (16+ km)
Ceiling: at least 12,000 feet AGL
Clouds: sky clear below 12,000 feet AGL
Present Weather: automated observation with no human augmentation;
there may or may not be significant weather present at this time
KVDF 170155Z AUTO 00000KT 10SM CLR 09/08 A3031 RMK AO2

Conditions at: KVDF observed 17 January 2018  01:35 UTC
Temperature: 10.0°C (50°F)
Dewpoint: 8.0°C (46°F) [RH = 87%]
Pressure (altimeter): 30.30 inches Hg (1026.2 mb)
Winds: calm
Visibility: 10 or more miles (16+ km)
Ceiling: at least 12,000 feet AGL
Clouds: sky clear below 12,000 feet AGL
Present Weather: automated observation with no human augmentation;
there may or may not be significant weather present at this time
KVDF 170135Z AUTO 00000KT 10SM CLR 10/08 A3030 RMK AO2

Conditions at: KVDF observed 17 January 2018  01:15 UTC
Temperature: 10.0°C (50°F)
Dewpoint: 8.0°C (46°F) [RH = 87%]
Pressure (altimeter): 30.30 inches Hg (1026.2 mb)
Winds: calm
Visibility: 10 or more miles (16+ km)
Ceiling: at least 12,000 feet AGL
Clouds: sky clear below 12,000 feet AGL
Present Weather: automated observation with no human augmentation;
there may or may not be significant weather present at this time
KVDF 170115Z AUTO 00000KT 10SM CLR 10/08 A3030 RMK AO2

Conditions at: KVDF observed 17 January 2018  00:55 UTC
Temperature: 11.0°C (52°F)
Dewpoint: 8.0°C (46°F) [RH = 82%]
Pressure (altimeter): 30.29 inches Hg (1025.8 mb)
Winds: calm
Visibility: 10 or more miles (16+ km)
Ceiling: at least 12,000 feet AGL
Clouds: sky clear below 12,000 feet AGL
Present Weather: automated observation with no human augmentation;
there may or may not be significant weather present at this time
KVDF 170055Z AUTO 00000KT 10SM CLR 11/08 A3029 RMK AO2

Conditions at: KVDF observed 17 January 2018  00:35 UTC
Temperature: 11.0°C (52°F)
Dewpoint: 9.0°C (48°F) [RH = 87%]
Pressure (altimeter): 30.30 inches Hg (1026.2 mb)
Winds: calm
Visibility: 10 or more miles (16+ km)
Ceiling: at least 12,000 feet AGL
Clouds: sky clear below 12,000 feet AGL
Present Weather: automated observation with no human augmentation;
there may or may not be significant weather present at this time
KVDF 170035Z AUTO 00000KT 10SM CLR 11/09 A3030 RMK AO2

Conditions at: KVDF observed 17 January 2018  00:15 UTC
Temperature: 12.0°C (54°F)
Dewpoint: 9.0°C (48°F) [RH = 82%]
Pressure (altimeter): 30.30 inches Hg (1026.2 mb)
Winds: calm
Visibility: 10 or more miles (16+ km)
Ceiling: at least 12,000 feet AGL
Clouds: sky clear below 12,000 feet AGL
Present Weather: automated observation with no human augmentation;
there may or may not be significant weather present at this time
KVDF 170015Z AUTO 00000KT 10SM CLR 12/09 A3030 RMK AO2

Conditions at: KVDF observed 16 January 2018  23:55 UTC
Temperature: 13.0°C (55°F)
Dewpoint: 8.0°C (46°F) [RH = 72%]
Pressure (altimeter): 30.29 inches Hg (1025.8 mb)
Winds: calm
Visibility: 10 or more miles (16+ km)
Ceiling: at least 12,000 feet AGL
Clouds: sky clear below 12,000 feet AGL
Present Weather: automated observation with no human augmentation;
there may or may not be significant weather present at this time
KVDF 162355Z AUTO 00000KT 10SM CLR 13/08 A3029 RMK AO2

Conditions at: KVDF observed 16 January 2018  23:35 UTC
Temperature: 15.0°C (59°F)
Dewpoint: 10.0°C (50°F) [RH = 72%]
Pressure (altimeter): 30.28 inches Hg (1025.5 mb)
Winds: calm
Visibility: 10 or more miles (16+ km)
Ceiling: at least 12,000 feet AGL
Clouds: sky clear below 12,000 feet AGL
Present Weather: automated observation with no human augmentation;
there may or may not be significant weather present at this time
KVDF 162335Z AUTO 00000KT 10SM CLR 15/10 A3028 RMK AO2

Conditions at: KVDF observed 16 January 2018  23:15 UTC
Temperature: 16.0°C (61°F)
Dewpoint: 7.0°C (45°F) [RH = 55%]
Pressure (altimeter): 30.27 inches Hg (1025.1 mb)
Winds: calm
Visibility: 10 or more miles (16+ km)
Ceiling: at least 12,000 feet AGL
Clouds: sky clear below 12,000 feet AGL
Present Weather: automated observation with no human augmentation;
there may or may not be significant weather present at this time
KVDF 162315Z AUTO 00000KT 10SM CLR 16/07 A3027 RMK AO2

Conditions at: KVDF observed 16 January 2018  22:55 UTC
Temperature: 18.0°C (64°F)
Dewpoint: 8.0°C (46°F) [RH = 52%]
Pressure (altimeter): 30.27 inches Hg (1025.1 mb)
Winds: calm
Visibility: 10 or more miles (16+ km)
Ceiling: at least 12,000 feet AGL
Clouds: sky clear below 12,000 feet AGL
Present Weather: automated observation with no human augmentation;
there may or may not be significant weather present at this time
KVDF 162255Z AUTO 00000KT 10SM CLR 18/08 A3027 RMK AO2

Conditions at: KVDF observed 16 January 2018  22:35 UTC
Temperature: 19.0°C (66°F)
Dewpoint: 7.0°C (45°F) [RH = 46%]
Pressure (altimeter): 30.27 inches Hg (1025.1 mb)
Winds: from the N (10 degrees) at 3 MPH (3 knots; 1.6 m/s)
Visibility: 10 or more miles (16+ km)
Ceiling: at least 12,000 feet AGL
Clouds: scattered clouds at 6000 feet AGL
Present Weather: automated observation with no human augmentation;
there may or may not be significant weather present at this time
KVDF 162235Z AUTO 01003KT 10SM SCT060 19/07 A3027 RMK AO2

Conditions at: KVDF observed 16 January 2018  22:15 UTC
Temperature: 20.0°C (68°F)
Dewpoint: 8.0°C (46°F) [RH = 46%]
Pressure (altimeter): 30.28 inches Hg (1025.5 mb)
Winds: from the NNE (20 degrees) at 5 MPH (4 knots; 2.1 m/s)
Visibility: 10 or more miles (16+ km)
Ceiling: 6000 feet AGL
Clouds: broken clouds at 6000 feet AGL
Present Weather: automated observation with no human augmentation;
there may or may not be significant weather present at this time
KVDF 162215Z AUTO 02004KT 10SM BKN060 20/08 A3028 RMK AO2

Conditions at: KVDF observed 16 January 2018  21:55 UTC
Temperature: 21.0°C (70°F)
Dewpoint: 7.0°C (45°F) [RH = 40%]
Pressure (altimeter): 30.28 inches Hg (1025.5 mb)
Winds: from the NW (320 degrees) at 3 MPH (3 knots; 1.6 m/s)
Visibility: 10 or more miles (16+ km)
Ceiling: at least 12,000 feet AGL
Clouds: sky clear below 12,000 feet AGL
Present Weather: automated observation with no human augmentation;
there may or may not be significant weather present at this time
KVDF 162155Z AUTO 32003KT 10SM CLR 21/07 A3028 RMK AO2

Conditions at: KVDF observed 16 January 2018  21:35 UTC
Temperature: 22.0°C (72°F)
Dewpoint: 8.0°C (46°F) [RH = 41%]
Pressure (altimeter): 30.28 inches Hg (1025.5 mb)
Winds: from the N (10 degrees) at 5 MPH (4 knots; 2.1 m/s)
Visibility: 10 or more miles (16+ km)
Ceiling: at least 12,000 feet AGL
Clouds: scattered clouds at 6000 feet AGL
Present Weather: automated observation with no human augmentation;
there may or may not be significant weather present at this time
KVDF 162135Z AUTO 01004KT 10SM SCT060 22/08 A3028 RMK AO2

Conditions at: KVDF observed 16 January 2018  21:15 UTC
Temperature: 22.0°C (72°F)
Dewpoint: 7.0°C (45°F) [RH = 38%]
Pressure (altimeter): 30.28 inches Hg (1025.5 mb)
Winds: from the N (350 degrees) at 3 MPH (3 knots; 1.6 m/s)
Visibility: 10 or more miles (16+ km)
Ceiling: at least 12,000 feet AGL
Clouds: sky clear below 12,000 feet AGL
Present Weather: automated observation with no human augmentation;
there may or may not be significant weather present at this time
KVDF 162115Z AUTO 35003KT 10SM CLR 22/07 A3028 RMK AO2

Conditions at: KVDF observed 16 January 2018  20:55 UTC
Temperature: 23.0°C (73°F)
Dewpoint: 7.0°C (45°F) [RH = 36%]
Pressure (altimeter): 30.28 inches Hg (1025.5 mb)
Winds: from the N (360 degrees) at 6 MPH (5 knots; 2.6 m/s)
Visibility: 10 or more miles (16+ km)
Ceiling: at least 12,000 feet AGL
Clouds: sky clear below 12,000 feet AGL
Present Weather: automated observation with no human augmentation;
there may or may not be significant weather present at this time
KVDF 162055Z AUTO 36005KT 10SM CLR 23/07 A3028 RMK AO2

Conditions at: KVDF observed 16 January 2018  20:35 UTC
Temperature: 22.0°C (72°F)
Dewpoint: 8.0°C (46°F) [RH = 41%]
Pressure (altimeter): 30.27 inches Hg (1025.1 mb)
Winds: from the N (10 degrees) at 3 MPH (3 knots; 1.6 m/s)
Visibility: 10 or more miles (16+ km)
Ceiling: at least 12,000 feet AGL
Clouds: sky clear below 12,000 feet AGL
Present Weather: automated observation with no human augmentation;
there may or may not be significant weather present at this time
KVDF 162035Z AUTO 01003KT 10SM CLR 22/08 A3027 RMK AO2

Conditions at: KVDF observed 16 January 2018  20:15 UTC
Temperature: 20.0°C (68°F)
Dewpoint: 8.0°C (46°F) [RH = 46%]
Pressure (altimeter): 30.29 inches Hg (1025.8 mb)
Winds: from the N (360 degrees) at 3 MPH (3 knots; 1.6 m/s)
Visibility: 10 or more miles (16+ km)
Ceiling: 7000 feet AGL
Clouds: broken clouds at 7000 feet AGL
Present Weather: automated observation with no human augmentation;
there may or may not be significant weather present at this time
KVDF 162015Z AUTO 36003KT 10SM BKN070 20/08 A3029 RMK AO2

Conditions at: KVDF observed 16 January 2018  19:55 UTC
Temperature: 22.0°C (72°F)
Dewpoint: 8.0°C (46°F) [RH = 41%]
Pressure (altimeter): 30.29 inches Hg (1025.8 mb)
Winds: from the N (360 degrees) at 6 MPH (5 knots; 2.6 m/s)
Visibility: 10 or more miles (16+ km)
Ceiling: 7000 feet AGL
Clouds: broken clouds at 7000 feet AGL
broken clouds at 7500 feet AGL
Present Weather: automated observation with no human augmentation;
there may or may not be significant weather present at this time
KVDF 161955Z AUTO 36005KT 10SM BKN070 BKN075 22/08 A3029 RMK AO2

Conditions at: KVDF observed 16 January 2018  19:35 UTC
Temperature: 23.0°C (73°F)
Dewpoint: 8.0°C (46°F) [RH = 38%]
Pressure (altimeter): 30.29 inches Hg (1025.8 mb)
Winds: from the ENE (70 degrees) at 7 MPH (6 knots; 3.1 m/s)
Visibility: 10 or more miles (16+ km)
Ceiling: at least 12,000 feet AGL
Clouds: scattered clouds at 5500 feet AGL
Present Weather: automated observation with no human augmentation;
there may or may not be significant weather present at this time
KVDF 161935Z AUTO 07006KT 10SM SCT055 23/08 A3029 RMK AO2

Conditions at: KVDF observed 16 January 2018  19:15 UTC
Temperature: 22.0°C (72°F)
Dewpoint: 7.0°C (45°F) [RH = 38%]
Pressure (altimeter): 30.29 inches Hg (1025.8 mb)
Winds: from the NNW (330 degrees) at 3 MPH (3 knots; 1.6 m/s)
Visibility: 10 or more miles (16+ km)
Ceiling: at least 12,000 feet AGL
Clouds: scattered clouds at 5500 feet AGL
Present Weather: automated observation with no human augmentation;
there may or may not be significant weather present at this time
KVDF 161915Z AUTO 33003KT 10SM SCT055 22/07 A3029 RMK AO2

Conditions at: KVDF observed 16 January 2018  18:55 UTC
Temperature: 21.0°C (70°F)
Dewpoint: 8.0°C (46°F) [RH = 43%]
Pressure (altimeter): 30.30 inches Hg (1026.2 mb)
Winds: from the SE (130 degrees) at 3 MPH (3 knots; 1.6 m/s)
Visibility: 10 or more miles (16+ km)
Ceiling: at least 12,000 feet AGL
Clouds: scattered clouds at 5500 feet AGL
scattered clouds at 7000 feet AGL
Present Weather: automated observation with no human augmentation;
there may or may not be significant weather present at this time
KVDF 161855Z AUTO 13003KT 10SM SCT055 SCT070 21/08 A3030 RMK AO2

Conditions at: KVDF observed 16 January 2018  18:35 UTC
Temperature: 22.0°C (72°F)
Dewpoint: 8.0°C (46°F) [RH = 41%]
Pressure (altimeter): 30.32 inches Hg (1026.8 mb)
Winds: from the ENE (60 degrees) at 6 MPH (5 knots; 2.6 m/s)
Visibility: 10 or more miles (16+ km)
Ceiling: at least 12,000 feet AGL
Clouds: scattered clouds at 5500 feet AGL
scattered clouds at 6500 feet AGL
Present Weather: automated observation with no human augmentation;
there may or may not be significant weather present at this time
KVDF 161835Z AUTO 06005KT 10SM SCT055 SCT065 22/08 A3032 RMK AO2

Conditions at: KVDF observed 16 January 2018  18:15 UTC
Temperature: 23.0°C (73°F)
Dewpoint: 8.0°C (46°F) [RH = 38%]
Pressure (altimeter): 30.33 inches Hg (1027.2 mb)
Winds: from the ENE (60 degrees) at 8 MPH (7 knots; 3.6 m/s)
Visibility: 10 or more miles (16+ km)
Ceiling: 5500 feet AGL
Clouds: broken clouds at 5500 feet AGL
broken clouds at 6500 feet AGL
Present Weather: automated observation with no human augmentation;
there may or may not be significant weather present at this time
KVDF 161815Z AUTO 06007KT 005V075 10SM BKN055 BKN065 23/08 A3033 RMK AO2

Conditions at: KVDF observed 16 January 2018  17:55 UTC
Temperature: 22.0°C (72°F)
Dewpoint: 9.0°C (48°F) [RH = 43%]
Pressure (altimeter): 30.34 inches Hg (1027.5 mb)
Winds: from the ENE (70 degrees) at 7 MPH (6 knots; 3.1 m/s)
Visibility: 10 or more miles (16+ km)
Ceiling: 5500 feet AGL
Clouds: broken clouds at 5500 feet AGL
Present Weather: automated observation with no human augmentation;
there may or may not be significant weather present at this time
KVDF 161755Z AUTO 07006KT 10SM BKN055 22/09 A3034 RMK AO2

Conditions at: KVDF observed 16 January 2018  17:35 UTC
Temperature: 21.0°C (70°F)
Dewpoint: 10.0°C (50°F) [RH = 49%]
Pressure (altimeter): 30.35 inches Hg (1027.9 mb)
Winds: from the SE (130 degrees) at 6 MPH (5 knots; 2.6 m/s)
Visibility: 10 or more miles (16+ km)
Ceiling: at least 12,000 feet AGL
Clouds: sky clear below 12,000 feet AGL
Present Weather: automated observation with no human augmentation;
there may or may not be significant weather present at this time
KVDF 161735Z AUTO 13005KT 10SM CLR 21/10 A3035 RMK AO2

Conditions at: KVDF observed 16 January 2018  17:15 UTC
Temperature: 22.0°C (72°F)
Dewpoint: 10.0°C (50°F) [RH = 46%]
Pressure (altimeter): 30.36 inches Hg (1028.2 mb)
Winds: from the E (100 degrees) at 7 MPH (6 knots; 3.1 m/s)
Visibility: 10 or more miles (16+ km)
Ceiling: at least 12,000 feet AGL
Clouds: sky clear below 12,000 feet AGL
Present Weather: automated observation with no human augmentation;
there may or may not be significant weather present at this time
KVDF 161715Z AUTO 10006KT 10SM CLR 22/10 A3036 RMK AO2

Conditions at: KVDF observed 16 January 2018  16:55 UTC
Temperature: 21.0°C (70°F)
Dewpoint: 10.0°C (50°F) [RH = 49%]
Pressure (altimeter): 30.37 inches Hg (1028.5 mb)
Winds: from the E (90 degrees) at 8 MPH (7 knots; 3.6 m/s)
Visibility: 10 or more miles (16+ km)
Ceiling: at least 12,000 feet AGL
Clouds: sky clear below 12,000 feet AGL
Present Weather: automated observation with no human augmentation;
there may or may not be significant weather present at this time
KVDF 161655Z AUTO 09007KT 10SM CLR 21/10 A3037 RMK AO2

Conditions at: KVDF observed 16 January 2018  16:35 UTC
Temperature: 20.0°C (68°F)
Dewpoint: 10.0°C (50°F) [RH = 53%]
Pressure (altimeter): 30.37 inches Hg (1028.5 mb)
Winds: from the E (80 degrees) at 7 MPH (6 knots; 3.1 m/s)
Visibility: 10 or more miles (16+ km)
Ceiling: at least 12,000 feet AGL
Clouds: sky clear below 12,000 feet AGL
Present Weather: automated observation with no human augmentation;
there may or may not be significant weather present at this time
KVDF 161635Z AUTO 08006KT 10SM CLR 20/10 A3037 RMK AO2

Conditions at: KVDF observed 16 January 2018  16:15 UTC
Temperature: 20.0°C (68°F)
Dewpoint: 10.0°C (50°F) [RH = 53%]
Pressure (altimeter): 30.39 inches Hg (1029.2 mb)
Winds: from the ENE (60 degrees) at 5 MPH (4 knots; 2.1 m/s)
Visibility: 10 or more miles (16+ km)
Ceiling: at least 12,000 feet AGL
Clouds: sky clear below 12,000 feet AGL
Present Weather: automated observation with no human augmentation;
there may or may not be significant weather present at this time
KVDF 161615Z AUTO 06004KT 10SM CLR 20/10 A3039 RMK AO2

Conditions at: KVDF observed 16 January 2018  15:55 UTC
Temperature: 18.0°C (64°F)
Dewpoint: 10.0°C (50°F) [RH = 59%]
Pressure (altimeter): 30.40 inches Hg (1029.5 mb)
Winds: from the ENE (60 degrees) at 5 MPH (4 knots; 2.1 m/s)
Visibility: 10 or more miles (16+ km)
Ceiling: at least 12,000 feet AGL
Clouds: sky clear below 12,000 feet AGL
Present Weather: automated observation with no human augmentation;
there may or may not be significant weather present at this time
KVDF 161555Z AUTO 06004KT 10SM CLR 18/10 A3040 RMK AO2

Conditions at: KVDF observed 16 January 2018  15:35 UTC
Temperature: 17.0°C (63°F)
Dewpoint: 9.0°C (48°F) [RH = 59%]
Pressure (altimeter): 30.40 inches Hg (1029.5 mb)
Winds: from the ENE (70 degrees) at 5 MPH (4 knots; 2.1 m/s)
Visibility: 10 or more miles (16+ km)
Ceiling: at least 12,000 feet AGL
Clouds: sky clear below 12,000 feet AGL
Present Weather: automated observation with no human augmentation;
there may or may not be significant weather present at this time
KVDF 161535Z AUTO 07004KT 10SM CLR 17/09 A3040 RMK AO2

Conditions at: KVDF observed 16 January 2018  15:15 UTC
Temperature: 16.0°C (61°F)
Dewpoint: 9.0°C (48°F) [RH = 63%]
Pressure (altimeter): 30.40 inches Hg (1029.5 mb)
Winds: from the NNE (30 degrees) at 6 MPH (5 knots; 2.6 m/s)
Visibility: 10 or more miles (16+ km)
Ceiling: at least 12,000 feet AGL
Clouds: sky clear below 12,000 feet AGL
Present Weather: automated observation with no human augmentation;
there may or may not be significant weather present at this time
KVDF 161515Z AUTO 03005KT 10SM CLR 16/09 A3040 RMK AO2

Conditions at: KVDF observed 16 January 2018  14:55 UTC
Temperature: 15.0°C (59°F)
Dewpoint: 8.0°C (46°F) [RH = 63%]
Pressure (altimeter): 30.40 inches Hg (1029.5 mb)
Winds: from the ENE (60 degrees) at 8 MPH (7 knots; 3.6 m/s)
Visibility: 10 or more miles (16+ km)
Ceiling: at least 12,000 feet AGL
Clouds: sky clear below 12,000 feet AGL
Present Weather: automated observation with no human augmentation;
there may or may not be significant weather present at this time
KVDF 161455Z AUTO 06007KT 10SM CLR 15/08 A3040 RMK AO2

Conditions at: KVDF observed 16 January 2018  14:35 UTC
Temperature: 13.0°C (55°F)
Dewpoint: 8.0°C (46°F) [RH = 72%]
Pressure (altimeter): 30.40 inches Hg (1029.5 mb)
Winds: from the NE (50 degrees) at 6 MPH (5 knots; 2.6 m/s)
Visibility: 10 or more miles (16+ km)
Ceiling: at least 12,000 feet AGL
Clouds: scattered clouds at 6500 feet AGL
Present Weather: automated observation with no human augmentation;
there may or may not be significant weather present at this time
KVDF 161435Z AUTO 05005KT 10SM SCT065 13/08 A3040 RMK AO2

Conditions at: KVDF observed 16 January 2018  14:15 UTC
Temperature: 12.0°C (54°F)
Dewpoint: 8.0°C (46°F) [RH = 76%]
Pressure (altimeter): 30.39 inches Hg (1029.2 mb)
Winds: from the NE (50 degrees) at 8 MPH (7 knots; 3.6 m/s)
Visibility: 10 or more miles (16+ km)
Ceiling: at least 12,000 feet AGL
Clouds: sky clear below 12,000 feet AGL
Present Weather: automated observation with no human augmentation;
there may or may not be significant weather present at this time
KVDF 161415Z AUTO 05007KT 10SM CLR 12/08 A3039 RMK AO2

Conditions at: KVDF observed 16 January 2018  13:55 UTC
Temperature: 11.0°C (52°F)
Dewpoint: 7.0°C (45°F) [RH = 76%]
Pressure (altimeter): 30.38 inches Hg (1028.9 mb)
Winds: from the NE (50 degrees) at 6 MPH (5 knots; 2.6 m/s)
Visibility: 10 or more miles (16+ km)
Ceiling: at least 12,000 feet AGL
Clouds: sky clear below 12,000 feet AGL
Present Weather: automated observation with no human augmentation;
there may or may not be significant weather present at this time
KVDF 161355Z AUTO 05005KT 10SM CLR 11/07 A3038 RMK AO2

Conditions at: KVDF observed 16 January 2018  13:35 UTC
Temperature: 9.0°C (48°F)
Dewpoint: 7.0°C (45°F) [RH = 87%]
Pressure (altimeter): 30.38 inches Hg (1028.9 mb)
Winds: from the NNE (30 degrees) at 3 MPH (3 knots; 1.6 m/s)
Visibility: 10 or more miles (16+ km)
Ceiling: at least 12,000 feet AGL
Clouds: sky clear below 12,000 feet AGL
Present Weather: automated observation with no human augmentation;
there may or may not be significant weather present at this time
KVDF 161335Z AUTO 03003KT 10SM CLR 09/07 A3038 RMK AO2

Conditions at: KVDF observed 16 January 2018  13:15 UTC
Temperature: 7.0°C (45°F)
Dewpoint: 6.0°C (43°F) [RH = 93%]
Pressure (altimeter): 30.38 inches Hg (1028.9 mb)
Winds: from the NNE (30 degrees) at 3 MPH (3 knots; 1.6 m/s)
Visibility: 10 or more miles (16+ km)
Ceiling: at least 12,000 feet AGL
Clouds: sky clear below 12,000 feet AGL
Present Weather: automated observation with no human augmentation;
there may or may not be significant weather present at this time
KVDF 161315Z AUTO 03003KT 10SM CLR 07/06 A3038 RMK AO2

Conditions at: KVDF observed 16 January 2018  12:55 UTC
Temperature: 6.0°C (43°F)
Dewpoint: 6.0°C (43°F) [RH = 100%]
Pressure (altimeter): 30.37 inches Hg (1028.5 mb)
Winds: calm
Visibility: 10 or more miles (16+ km)
Ceiling: at least 12,000 feet AGL
Clouds: sky clear below 12,000 feet AGL
Present Weather: automated observation with no human augmentation;
there may or may not be significant weather present at this time
KVDF 161255Z AUTO 00000KT 10SM CLR 06/06 A3037 RMK AO2

Conditions at: KVDF observed 16 January 2018  12:35 UTC
Temperature: 6.0°C (43°F)
Dewpoint: 5.0°C (41°F) [RH = 93%]
Pressure (altimeter): 30.37 inches Hg (1028.5 mb)
Winds: calm
Visibility: 10 or more miles (16+ km)
Ceiling: at least 12,000 feet AGL
Clouds: scattered clouds at 7000 feet AGL
Present Weather: automated observation with no human augmentation;
there may or may not be significant weather present at this time
KVDF 161235Z AUTO 00000KT 10SM SCT070 06/05 A3037 RMK AO2

Conditions at: KVDF observed 16 January 2018  12:15 UTC
Temperature: 6.0°C (43°F)
Dewpoint: 5.0°C (41°F) [RH = 93%]
Pressure (altimeter): 30.37 inches Hg (1028.5 mb)
Winds: calm
Visibility: 10 or more miles (16+ km)
Ceiling: 7000 feet AGL
Clouds: broken clouds at 7000 feet AGL
Present Weather: automated observation with no human augmentation;
there may or may not be significant weather present at this time
KVDF 161215Z AUTO 00000KT 10SM BKN070 06/05 A3037 RMK AO2

Conditions at: KVDF observed 16 January 2018  11:55 UTC
Temperature: 6.0°C (43°F)
Dewpoint: 5.0°C (41°F) [RH = 93%]
Pressure (altimeter): 30.36 inches Hg (1028.2 mb)
Winds: calm
Visibility: 10 or more miles (16+ km)
Ceiling: 7000 feet AGL
Clouds: broken clouds at 7000 feet AGL
Present Weather: automated observation with no human augmentation;
there may or may not be significant weather present at this time
KVDF 161155Z AUTO 00000KT 10SM BKN070 06/05 A3036 RMK AO2

Conditions at: KVDF observed 16 January 2018  11:35 UTC
Temperature: 6.0°C (43°F)
Dewpoint: 5.0°C (41°F) [RH = 93%]
Pressure (altimeter): 30.37 inches Hg (1028.5 mb)
Winds: calm
Visibility: 10 or more miles (16+ km)
Ceiling: 7000 feet AGL
Clouds: broken clouds at 7000 feet AGL
Present Weather: automated observation with no human augmentation;
there may or may not be significant weather present at this time
KVDF 161135Z AUTO 00000KT 10SM BKN070 06/05 A3037 RMK AO2

Conditions at: KVDF observed 16 January 2018  11:15 UTC
Temperature: 6.0°C (43°F)
Dewpoint: 5.0°C (41°F) [RH = 93%]
Pressure (altimeter): 30.37 inches Hg (1028.5 mb)
Winds: calm
Visibility: 10 or more miles (16+ km)
Ceiling: at least 12,000 feet AGL
Clouds: scattered clouds at 7000 feet AGL
Present Weather: automated observation with no human augmentation;
there may or may not be significant weather present at this time
KVDF 161115Z AUTO 00000KT 10SM SCT070 06/05 A3037 RMK AO2

Conditions at: KVDF observed 16 January 2018  10:55 UTC
Temperature: 6.0°C (43°F)
Dewpoint: 5.0°C (41°F) [RH = 93%]
Pressure (altimeter): 30.36 inches Hg (1028.2 mb)
Winds: calm
Visibility: 10 or more miles (16+ km)
Ceiling: at least 12,000 feet AGL
Clouds: scattered clouds at 7000 feet AGL
Present Weather: automated observation with no human augmentation;
there may or may not be significant weather present at this time
KVDF 161055Z AUTO 00000KT 10SM SCT070 06/05 A3036 RMK AO2

Conditions at: KVDF observed 16 January 2018  10:35 UTC
Temperature: 6.0°C (43°F)
Dewpoint: 5.0°C (41°F) [RH = 93%]
Pressure (altimeter): 30.36 inches Hg (1028.2 mb)
Winds: from the NNE (30 degrees) at 3 MPH (3 knots; 1.6 m/s)
Visibility: 10 or more miles (16+ km)
Ceiling: at least 12,000 feet AGL
Clouds: scattered clouds at 7000 feet AGL
Present Weather: automated observation with no human augmentation;
there may or may not be significant weather present at this time
KVDF 161035Z AUTO 03003KT 10SM SCT070 06/05 A3036 RMK AO2

Conditions at: KVDF observed 16 January 2018  10:15 UTC
Temperature: 6.0°C (43°F)
Dewpoint: 5.0°C (41°F) [RH = 93%]
Pressure (altimeter): 30.35 inches Hg (1027.9 mb)
Winds: calm
Visibility: 10 or more miles (16+ km)
Ceiling: at least 12,000 feet AGL
Clouds: scattered clouds at 7000 feet AGL
Present Weather: automated observation with no human augmentation;
there may or may not be significant weather present at this time
KVDF 161015Z AUTO 00000KT 10SM SCT070 06/05 A3035 RMK AO2

Conditions at: KVDF observed 16 January 2018  09:55 UTC
Temperature: 6.0°C (43°F)
Dewpoint: 5.0°C (41°F) [RH = 93%]
Pressure (altimeter): 30.35 inches Hg (1027.9 mb)
Winds: from the NNE (20 degrees) at 3 MPH (3 knots; 1.6 m/s)
Visibility: 10 or more miles (16+ km)
Ceiling: at least 12,000 feet AGL
Clouds: scattered clouds at 7000 feet AGL
Present Weather: automated observation with no human augmentation;
there may or may not be significant weather present at this time
KVDF 160955Z AUTO 02003KT 10SM SCT070 06/05 A3035 RMK AO2

Conditions at: KVDF observed 16 January 2018  09:35 UTC
Temperature: 7.0°C (45°F)
Dewpoint: 5.0°C (41°F) [RH = 87%]
Pressure (altimeter): 30.35 inches Hg (1027.9 mb)
Winds: from the NNE (30 degrees) at 3 MPH (3 knots; 1.6 m/s)
Visibility: 10 or more miles (16+ km)
Ceiling: 7000 feet AGL
Clouds: broken clouds at 7000 feet AGL
Present Weather: automated observation with no human augmentation;
there may or may not be significant weather present at this time
KVDF 160935Z AUTO 03003KT 10SM BKN070 07/05 A3035 RMK AO2

Conditions at: KVDF observed 16 January 2018  09:15 UTC
Temperature: 7.0°C (45°F)
Dewpoint: 5.0°C (41°F) [RH = 87%]
Pressure (altimeter): 30.34 inches Hg (1027.5 mb)
Winds: calm
Visibility: 10 or more miles (16+ km)
Ceiling: 7000 feet AGL
Clouds: broken clouds at 7000 feet AGL
Present Weather: automated observation with no human augmentation;
there may or may not be significant weather present at this time
KVDF 160915Z AUTO 00000KT 10SM BKN070 07/05 A3034 RMK AO2

Conditions at: KVDF observed 16 January 2018  08:55 UTC
Temperature: 7.0°C (45°F)
Dewpoint: 5.0°C (41°F) [RH = 87%]
Pressure (altimeter): 30.35 inches Hg (1027.9 mb)
Winds: from the NNE (30 degrees) at 3 MPH (3 knots; 1.6 m/s)
Visibility: 10 or more miles (16+ km)
Ceiling: 6000 feet AGL
Clouds: broken clouds at 6000 feet AGL
Present Weather: automated observation with no human augmentation;
there may or may not be significant weather present at this time
KVDF 160855Z AUTO 03003KT 10SM BKN060 07/05 A3035 RMK AO2

Conditions at: KVDF observed 16 January 2018  08:35 UTC
Temperature: 6.0°C (43°F)
Dewpoint: 5.0°C (41°F) [RH = 93%]
Pressure (altimeter): 30.35 inches Hg (1027.9 mb)
Winds: from the NNE (30 degrees) at 3 MPH (3 knots; 1.6 m/s)
Visibility: 10 or more miles (16+ km)
Ceiling: 6000 feet AGL
Clouds: broken clouds at 6000 feet AGL
Present Weather: automated observation with no human augmentation;
there may or may not be significant weather present at this time
KVDF 160835Z AUTO 03003KT 10SM BKN060 06/05 A3035 RMK AO2

Conditions at: KVDF observed 16 January 2018  08:15 UTC
Temperature: 6.0°C (43°F)
Dewpoint: 5.0°C (41°F) [RH = 93%]
Pressure (altimeter): 30.35 inches Hg (1027.9 mb)
Winds: from the NNE (20 degrees) at 3 MPH (3 knots; 1.6 m/s)
Visibility: 10 or more miles (16+ km)
Ceiling: 6000 feet AGL
Clouds: broken clouds at 6000 feet AGL
Present Weather: automated observation with no human augmentation;
there may or may not be significant weather present at this time
KVDF 160815Z AUTO 02003KT 10SM BKN060 06/05 A3035 RMK AO2

Conditions at: KVDF observed 16 January 2018  07:55 UTC
Temperature: 6.0°C (43°F)
Dewpoint: 4.0°C (39°F) [RH = 87%]
Pressure (altimeter): 30.35 inches Hg (1027.9 mb)
Winds: calm
Visibility: 10 or more miles (16+ km)
Ceiling: 6000 feet AGL
Clouds: broken clouds at 6000 feet AGL
Present Weather: automated observation with no human augmentation;
there may or may not be significant weather present at this time
KVDF 160755Z AUTO 00000KT 10SM BKN060 06/04 A3035 RMK AO2

Conditions at: KVDF observed 16 January 2018  07:35 UTC
Temperature: 6.0°C (43°F)
Dewpoint: 5.0°C (41°F) [RH = 93%]
Pressure (altimeter): 30.35 inches Hg (1027.9 mb)
Winds: from the NNE (20 degrees) at 3 MPH (3 knots; 1.6 m/s)
Visibility: 10 or more miles (16+ km)
Ceiling: 6000 feet AGL
Clouds: broken clouds at 6000 feet AGL
Present Weather: automated observation with no human augmentation;
there may or may not be significant weather present at this time
KVDF 160735Z AUTO 02003KT 10SM BKN060 06/05 A3035 RMK AO2

Conditions at: KVDF observed 16 January 2018  07:15 UTC
Temperature: 7.0°C (45°F)
Dewpoint: 5.0°C (41°F) [RH = 87%]
Pressure (altimeter): 30.35 inches Hg (1027.9 mb)
Winds: calm
Visibility: 10 or more miles (16+ km)
Ceiling: at least 12,000 feet AGL
Clouds: scattered clouds at 6000 feet AGL
Present Weather: automated observation with no human augmentation;
there may or may not be significant weather present at this time
KVDF 160715Z AUTO 00000KT 10SM SCT060 07/05 A3035 RMK AO2

Conditions at: KVDF observed 16 January 2018  06:55 UTC
Temperature: 7.0°C (45°F)
Dewpoint: 5.0°C (41°F) [RH = 87%]
Pressure (altimeter): 30.36 inches Hg (1028.2 mb)
Winds: from the NE (40 degrees) at 3 MPH (3 knots; 1.6 m/s)
Visibility: 10 or more miles (16+ km)
Ceiling: 6000 feet AGL
Clouds: broken clouds at 6000 feet AGL
Present Weather: automated observation with no human augmentation;
there may or may not be significant weather present at this time
KVDF 160655Z AUTO 04003KT 10SM BKN060 07/05 A3036 RMK AO2

Conditions at: KVDF observed 16 January 2018  06:35 UTC
Temperature: 7.0°C (45°F)
Dewpoint: 4.0°C (39°F) [RH = 81%]
Pressure (altimeter): 30.36 inches Hg (1028.2 mb)
Winds: from the NNE (30 degrees) at 3 MPH (3 knots; 1.6 m/s)
Visibility: 10 or more miles (16+ km)
Ceiling: at least 12,000 feet AGL
Clouds: scattered clouds at 6000 feet AGL
Present Weather: automated observation with no human augmentation;
there may or may not be significant weather present at this time
KVDF 160635Z AUTO 03003KT 10SM SCT060 07/04 A3036 RMK AO2

Conditions at: KVDF observed 16 January 2018  06:15 UTC
Temperature: 7.0°C (45°F)
Dewpoint: 4.0°C (39°F) [RH = 81%]
Pressure (altimeter): 30.36 inches Hg (1028.2 mb)
Winds: calm
Visibility: 10 or more miles (16+ km)
Ceiling: at least 12,000 feet AGL
Clouds: scattered clouds at 6000 feet AGL
Present Weather: automated observation with no human augmentation;
there may or may not be significant weather present at this time
KVDF 160615Z AUTO 00000KT 10SM SCT060 07/04 A3036 RMK AO2

Conditions at: KVDF observed 16 January 2018  05:55 UTC
Temperature: 7.0°C (45°F)
Dewpoint: 4.0°C (39°F) [RH = 81%]
Pressure (altimeter): 30.37 inches Hg (1028.5 mb)
Winds: calm
Visibility: 10 or more miles (16+ km)
Ceiling: 6000 feet AGL
Clouds: broken clouds at 6000 feet AGL
Present Weather: automated observation with no human augmentation;
there may or may not be significant weather present at this time
KVDF 160555Z AUTO 00000KT 10SM BKN060 07/04 A3037 RMK AO2

Conditions at: KVDF observed 16 January 2018  05:35 UTC
Temperature: 7.0°C (45°F)
Dewpoint: 4.0°C (39°F) [RH = 81%]
Pressure (altimeter): 30.36 inches Hg (1028.2 mb)
Winds: from the NNE (20 degrees) at 5 MPH (4 knots; 2.1 m/s)
Visibility: 10 or more miles (16+ km)
Ceiling: 6000 feet AGL
Clouds: broken clouds at 6000 feet AGL
Present Weather: automated observation with no human augmentation;
there may or may not be significant weather present at this time
KVDF 160535Z AUTO 02004KT 10SM BKN060 07/04 A3036 RMK AO2

Conditions at: KVDF observed 16 January 2018  05:15 UTC
Temperature: 8.0°C (46°F)
Dewpoint: 4.0°C (39°F) [RH = 76%]
Pressure (altimeter): 30.38 inches Hg (1028.9 mb)
Winds: from the NNE (30 degrees) at 3 MPH (3 knots; 1.6 m/s)
Visibility: 10 or more miles (16+ km)
Ceiling: 6000 feet AGL
Clouds: broken clouds at 6000 feet AGL
Present Weather: automated observation with no human augmentation;
there may or may not be significant weather present at this time
KVDF 160515Z AUTO 03003KT 10SM BKN060 08/04 A3038 RMK AO2

Conditions at: KVDF observed 16 January 2018  04:55 UTC
Temperature: 8.0°C (46°F)
Dewpoint: 4.0°C (39°F) [RH = 76%]
Pressure (altimeter): 30.38 inches Hg (1028.9 mb)
Winds: calm
Visibility: 10 or more miles (16+ km)
Ceiling: at least 12,000 feet AGL
Clouds: sky clear below 12,000 feet AGL
Present Weather: automated observation with no human augmentation;
there may or may not be significant weather present at this time
KVDF 160455Z AUTO 00000KT 10SM CLR 08/04 A3038 RMK AO2

Conditions at: KVDF observed 16 January 2018  04:35 UTC
Temperature: 8.0°C (46°F)
Dewpoint: 4.0°C (39°F) [RH = 76%]
Pressure (altimeter): 30.38 inches Hg (1028.9 mb)
Winds: calm
Visibility: 10 or more miles (16+ km)
Ceiling: at least 12,000 feet AGL
Clouds: scattered clouds at 6000 feet AGL
Present Weather: automated observation with no human augmentation;
there may or may not be significant weather present at this time
KVDF 160435Z AUTO 00000KT 10SM SCT060 08/04 A3038 RMK AO2

Conditions at: KVDF observed 16 January 2018  04:15 UTC
Temperature: 8.0°C (46°F)
Dewpoint: 3.0°C (37°F) [RH = 71%]
Pressure (altimeter): 30.38 inches Hg (1028.9 mb)
Winds: from the NE (40 degrees) at 5 MPH (4 knots; 2.1 m/s)
Visibility: 10 or more miles (16+ km)
Ceiling: at least 12,000 feet AGL
Clouds: scattered clouds at 6000 feet AGL
Present Weather: automated observation with no human augmentation;
there may or may not be significant weather present at this time
KVDF 160415Z AUTO 04004KT 10SM SCT060 08/03 A3038 RMK AO2

Conditions at: KVDF observed 16 January 2018  03:55 UTC
Temperature: 9.0°C (48°F)
Dewpoint: 3.0°C (37°F) [RH = 66%]
Pressure (altimeter): 30.38 inches Hg (1028.9 mb)
Winds: from the NE (40 degrees) at 6 MPH (5 knots; 2.6 m/s)
Visibility: 10 or more miles (16+ km)
Ceiling: at least 12,000 feet AGL
Clouds: sky clear below 12,000 feet AGL
Present Weather: automated observation with no human augmentation;
there may or may not be significant weather present at this time
KVDF 160355Z AUTO 04005KT 10SM CLR 09/03 A3038 RMK AO2

Conditions at: KVDF observed 16 January 2018  03:35 UTC
Temperature: 9.0°C (48°F)
Dewpoint: 3.0°C (37°F) [RH = 66%]
Pressure (altimeter): 30.38 inches Hg (1028.9 mb)
Winds: from the NE (40 degrees) at 5 MPH (4 knots; 2.1 m/s)
Visibility: 10 or more miles (16+ km)
Ceiling: at least 12,000 feet AGL
Clouds: sky clear below 12,000 feet AGL
Present Weather: automated observation with no human augmentation;
there may or may not be significant weather present at this time
KVDF 160335Z AUTO 04004KT 10SM CLR 09/03 A3038 RMK AO2

Conditions at: KVDF observed 16 January 2018  03:15 UTC
Temperature: 10.0°C (50°F)
Dewpoint: 3.0°C (37°F) [RH = 62%]
Pressure (altimeter): 30.38 inches Hg (1028.9 mb)
Winds: from the NE (50 degrees) at 5 MPH (4 knots; 2.1 m/s)
Visibility: 10 or more miles (16+ km)
Ceiling: at least 12,000 feet AGL
Clouds: sky clear below 12,000 feet AGL
Present Weather: automated observation with no human augmentation;
there may or may not be significant weather present at this time
KVDF 160315Z AUTO 05004KT 10SM CLR 10/03 A3038 RMK AO2

Conditions at: KVDF observed 16 January 2018  02:55 UTC
Temperature: 10.0°C (50°F)
Dewpoint: 3.0°C (37°F) [RH = 62%]
Pressure (altimeter): 30.37 inches Hg (1028.5 mb)
Winds: from the NE (40 degrees) at 5 MPH (4 knots; 2.1 m/s)
Visibility: 10 or more miles (16+ km)
Ceiling: at least 12,000 feet AGL
Clouds: scattered clouds at 6000 feet AGL
Present Weather: automated observation with no human augmentation;
there may or may not be significant weather present at this time
KVDF 160255Z AUTO 04004KT 10SM SCT060 10/03 A3037 RMK AO2

Conditions at: KVDF observed 16 January 2018  02:35 UTC
Temperature: 10.0°C (50°F)
Dewpoint: 4.0°C (39°F) [RH = 66%]
Pressure (altimeter): 30.37 inches Hg (1028.5 mb)
Winds: from the NE (40 degrees) at 5 MPH (4 knots; 2.1 m/s)
Visibility: 10 or more miles (16+ km)
Ceiling: at least 12,000 feet AGL
Clouds: scattered clouds at 6000 feet AGL
Present Weather: automated observation with no human augmentation;
there may or may not be significant weather present at this time
KVDF 160235Z AUTO 04004KT 10SM SCT060 10/04 A3037 RMK AO2

Conditions at: KVDF observed 16 January 2018  02:15 UTC
Temperature: 11.0°C (52°F)
Dewpoint: 4.0°C (39°F) [RH = 62%]
Pressure (altimeter): 30.37 inches Hg (1028.5 mb)
Winds: from the NE (40 degrees) at 5 MPH (4 knots; 2.1 m/s)
Visibility: 10 or more miles (16+ km)
Ceiling: at least 12,000 feet AGL
Clouds: sky clear below 12,000 feet AGL
Present Weather: automated observation with no human augmentation;
there may or may not be significant weather present at this time
KVDF 160215Z AUTO 04004KT 10SM CLR 11/04 A3037 RMK AO2

Conditions at: KVDF observed 16 January 2018  01:55 UTC
Temperature: 11.0°C (52°F)
Dewpoint: 5.0°C (41°F) [RH = 66%]
Pressure (altimeter): 30.37 inches Hg (1028.5 mb)
Winds: from the NE (40 degrees) at 5 MPH (4 knots; 2.1 m/s)
Visibility: 10 or more miles (16+ km)
Ceiling: at least 12,000 feet AGL
Clouds: sky clear below 12,000 feet AGL
Present Weather: automated observation with no human augmentation;
there may or may not be significant weather present at this time
KVDF 160155Z AUTO 04004KT 10SM CLR 11/05 A3037 RMK AO2

Conditions at: KVDF observed 16 January 2018  01:35 UTC
Temperature: 11.0°C (52°F)
Dewpoint: 5.0°C (41°F) [RH = 66%]
Pressure (altimeter): 30.37 inches Hg (1028.5 mb)
Winds: from the NE (50 degrees) at 7 MPH (6 knots; 3.1 m/s)
Visibility: 10 or more miles (16+ km)
Ceiling: at least 12,000 feet AGL
Clouds: sky clear below 12,000 feet AGL
Present Weather: automated observation with no human augmentation;
there may or may not be significant weather present at this time
KVDF 160135Z AUTO 05006KT 10SM CLR 11/05 A3037 RMK AO2

Conditions at: KVDF observed 16 January 2018  01:15 UTC
Temperature: 12.0°C (54°F)
Dewpoint: 6.0°C (43°F) [RH = 67%]
Pressure (altimeter): 30.36 inches Hg (1028.2 mb)
Winds: from the NE (50 degrees) at 6 MPH (5 knots; 2.6 m/s)
Visibility: 10 or more miles (16+ km)
Ceiling: at least 12,000 feet AGL
Clouds: sky clear below 12,000 feet AGL
Present Weather: automated observation with no human augmentation;
there may or may not be significant weather present at this time
KVDF 160115Z AUTO 05005KT 10SM CLR 12/06 A3036 RMK AO2

Conditions at: KVDF observed 16 January 2018  00:55 UTC
Temperature: 12.0°C (54°F)
Dewpoint: 6.0°C (43°F) [RH = 67%]
Pressure (altimeter): 30.35 inches Hg (1027.9 mb)
Winds: from the NE (40 degrees) at 5 MPH (4 knots; 2.1 m/s)
Visibility: 10 or more miles (16+ km)
Ceiling: at least 12,000 feet AGL
Clouds: sky clear below 12,000 feet AGL
Present Weather: automated observation with no human augmentation;
there may or may not be significant weather present at this time
KVDF 160055Z AUTO 04004KT 10SM CLR 12/06 A3035 RMK AO2

Conditions at: KVDF observed 16 January 2018  00:35 UTC
Temperature: 13.0°C (55°F)
Dewpoint: 6.0°C (43°F) [RH = 62%]
Pressure (altimeter): 30.35 inches Hg (1027.9 mb)
Winds: from the NE (40 degrees) at 5 MPH (4 knots; 2.1 m/s)
Visibility: 10 or more miles (16+ km)
Ceiling: at least 12,000 feet AGL
Clouds: sky clear below 12,000 feet AGL
Present Weather: automated observation with no human augmentation;
there may or may not be significant weather present at this time
KVDF 160035Z AUTO 04004KT 10SM CLR 13/06 A3035 RMK AO2

Conditions at: KVDF observed 16 January 2018  00:15 UTC
Temperature: 13.0°C (55°F)
Dewpoint: 7.0°C (45°F) [RH = 67%]
Pressure (altimeter): 30.35 inches Hg (1027.9 mb)
Winds: from the NE (40 degrees) at 5 MPH (4 knots; 2.1 m/s)
Visibility: 10 or more miles (16+ km)
Ceiling: at least 12,000 feet AGL
Clouds: sky clear below 12,000 feet AGL
Present Weather: automated observation with no human augmentation;
there may or may not be significant weather present at this time
KVDF 160015Z AUTO 04004KT 10SM CLR 13/07 A3035 RMK AO2

Conditions at: KVDF observed 15 January 2018  23:55 UTC
Temperature: 13.0°C (55°F)
Dewpoint: 6.0°C (43°F) [RH = 62%]
Pressure (altimeter): 30.34 inches Hg (1027.5 mb)
Winds: from the NNE (30 degrees) at 3 MPH (3 knots; 1.6 m/s)
Visibility: 10 or more miles (16+ km)
Ceiling: at least 12,000 feet AGL
Clouds: sky clear below 12,000 feet AGL
Present Weather: automated observation with no human augmentation;
there may or may not be significant weather present at this time
KVDF 152355Z AUTO 03003KT 10SM CLR 13/06 A3034 RMK AO2

Conditions at: KVDF observed 15 January 2018  23:35 UTC
Temperature: 13.0°C (55°F)
Dewpoint: 6.0°C (43°F) [RH = 62%]
Pressure (altimeter): 30.33 inches Hg (1027.2 mb)
Winds: from the NNE (30 degrees) at 3 MPH (3 knots; 1.6 m/s)
Visibility: 10 or more miles (16+ km)
Ceiling: at least 12,000 feet AGL
Clouds: sky clear below 12,000 feet AGL
Present Weather: automated observation with no human augmentation;
there may or may not be significant weather present at this time
KVDF 152335Z AUTO 03003KT 10SM CLR 13/06 A3033 RMK AO2

Conditions at: KVDF observed 15 January 2018  23:15 UTC
Temperature: 15.0°C (59°F)
Dewpoint: 6.0°C (43°F) [RH = 55%]
Pressure (altimeter): 30.32 inches Hg (1026.8 mb)
Winds: from the NNE (20 degrees) at 3 MPH (3 knots; 1.6 m/s)
Visibility: 10 or more miles (16+ km)
Ceiling: at least 12,000 feet AGL
Clouds: sky clear below 12,000 feet AGL
Present Weather: automated observation with no human augmentation;
there may or may not be significant weather present at this time
KVDF 152315Z AUTO 02003KT 10SM CLR 15/06 A3032 RMK AO2

Conditions at: KVDF observed 15 January 2018  22:55 UTC
Temperature: 16.0°C (61°F)
Dewpoint: 6.0°C (43°F) [RH = 51%]
Pressure (altimeter): 30.32 inches Hg (1026.8 mb)
Winds: from the NNE (30 degrees) at 5 MPH (4 knots; 2.1 m/s)
Visibility: 10 or more miles (16+ km)
Ceiling: at least 12,000 feet AGL
Clouds: sky clear below 12,000 feet AGL
Present Weather: automated observation with no human augmentation;
there may or may not be significant weather present at this time
KVDF 152255Z AUTO 03004KT 10SM CLR 16/06 A3032 RMK AO2

Conditions at: KVDF observed 15 January 2018  22:35 UTC
Temperature: 17.0°C (63°F)
Dewpoint: 6.0°C (43°F) [RH = 48%]
Pressure (altimeter): 30.31 inches Hg (1026.5 mb)
Winds: from the NNE (30 degrees) at 6 MPH (5 knots; 2.6 m/s)
Visibility: 10 or more miles (16+ km)
Ceiling: at least 12,000 feet AGL
Clouds: sky clear below 12,000 feet AGL
Present Weather: automated observation with no human augmentation;
there may or may not be significant weather present at this time
KVDF 152235Z AUTO 03005KT 10SM CLR 17/06 A3031 RMK AO2